Time;durP1;ratioP1;P1;durP2;ratioP2;P2;SDS_P1;SDS_P2;PMS_P1;PMS_P2;Temp;Humidity;BMP_temperature;BMP_pressure;BME280_temperature;BME280_humidity;BME280_pressure;Samples;Min_cycle;Max_cycle;Signal;HPM_P1;HPM_P2
2021/08/10 00:02:23;;;;;;;;;6.00;6.00;;;;;;;;5163917;27;45470;-74
2021/08/10 00:04:49;;;;;;;;;4.67;4.67;;;;;;;;5163722;27;46130;-74
2021/08/10 00:07:14;;;;;;;;;5.33;5.33;;;;;;;;5163629;27;45271;-73
2021/08/10 00:09:39;;;;;;;;;8.00;8.00;;;;;;;;5163882;27;45880;-74
2021/08/10 00:12:05;;;;;;;;;5.00;4.00;;;;;;;;5144712;27;47000;-75
2021/08/10 00:14:30;;;;;;;;;5.67;5.67;;;;;;;;5163197;27;45274;-74
2021/08/10 00:16:56;;;;;;;;;5.00;5.00;;;;;;;;5164137;27;45255;-74
2021/08/10 00:19:21;;;;;;;;;6.00;6.00;;;;;;;;5184916;27;45321;-74
2021/08/10 00:21:46;;;;;;;;;5.67;5.67;;;;;;;;5184444;27;45326;-74
2021/08/10 00:24:11;;;;;;;;;6.00;6.00;;;;;;;;5184730;27;46117;-73
2021/08/10 00:26:38;;;;;;;;;4.00;4.00;;;;;;;;5184292;27;45355;-74
2021/08/10 00:29:04;;;;;;;;;5.67;5.67;;;;;;;;5184432;27;45334;-74
2021/08/10 00:31:30;;;;;;;;;8.00;6.67;;;;;;;;5165214;27;45366;-74
2021/08/10 00:33:56;;;;;;;;;6.00;6.00;;;;;;;;5163437;27;46069;-73
2021/08/10 00:36:22;;;;;;;;;5.00;4.67;;;;;;;;5163410;27;45327;-74
2021/08/10 00:38:47;;;;;;;;;6.00;6.00;;;;;;;;5163312;27;45251;-74
2021/08/10 00:41:12;;;;;;;;;5.00;5.00;;;;;;;;5163494;27;45300;-74
2021/08/10 00:43:39;;;;;;;;;7.00;5.67;;;;;;;;5163050;27;45304;-74
2021/08/10 00:46:06;;;;;;;;;4.00;4.00;;;;;;;;5163213;27;45340;-74
2021/08/10 00:48:32;;;;;;;;;5.00;4.67;;;;;;;;5163313;27;45446;-74
2021/08/10 00:50:58;;;;;;;;;4.33;4.33;;;;;;;;5163168;27;45273;-74
2021/08/10 00:53:24;;;;;;;;;7.00;7.00;;;;;;;;5162997;27;45562;-74
2021/08/10 00:55:49;;;;;;;;;6.00;5.67;;;;;;;;5163197;27;45290;-74
2021/08/10 00:58:15;;;;;;;;;7.33;7.33;;;;;;;;5162891;27;45363;-73
2021/08/10 01:00:40;;;;;;;;;6.00;6.00;;;;;;;;5163055;27;45426;-74
2021/08/10 01:03:06;;;;;;;;;8.00;5.67;;;;;;;;5162792;27;45273;-73
2021/08/10 01:05:31;;;;;;;;;5.00;5.00;;;;;;;;5162939;27;45427;-74
2021/08/10 01:08:20;;;;;;;;;7.00;5.00;;;;;;;;5162882;27;45321;-74
2021/08/10 01:11:24;;;;;;;;;8.33;7.00;;;;;;;;5148832;27;45719;-74
2021/08/10 01:13:53;;;;;;;;;5.00;4.67;;;;;;;;5057168;28;45373;-74
2021/08/10 01:16:24;;;;;;;;;9.67;6.67;;;;;;;;5057419;28;45419;-74
2021/08/10 01:18:55;;;;;;;;;6.33;5.33;;;;;;;;5101092;27;45532;-73
2021/08/10 01:21:25;;;;;;;;;6.00;5.33;;;;;;;;5141592;27;45427;-74
2021/08/10 01:23:55;;;;;;;;;8.00;8.00;;;;;;;;5141594;27;45325;-74
2021/08/10 01:26:27;;;;;;;;;4.00;4.00;;;;;;;;5122782;27;45528;-74
2021/08/10 01:29:11;;;;;;;;;5.67;5.33;;;;;;;;5141624;27;45325;-74
2021/08/10 01:31:37;;;;;;;;;7.33;6.33;;;;;;;;5161268;27;45332;-73
2021/08/10 01:34:14;;;;;;;;;7.33;7.00;;;;;;;;5161996;27;45703;-73
2021/08/10 01:36:41;;;;;;;;;5.33;5.00;;;;;;;;5162458;27;45333;-73
2021/08/10 01:39:07;;;;;;;;;5.67;5.67;;;;;;;;5162493;27;45298;-72
2021/08/10 01:41:33;;;;;;;;;9.00;9.00;;;;;;;;5162486;27;45310;-72
2021/08/10 01:44:00;;;;;;;;;8.33;7.33;;;;;;;;5162185;27;45287;-75
2021/08/10 01:46:26;;;;;;;;;9.00;6.67;;;;;;;;5162656;27;45353;-74
2021/08/10 01:48:53;;;;;;;;;6.67;6.33;;;;;;;;5162592;27;45245;-73
2021/08/10 01:51:20;;;;;;;;;6.00;6.00;;;;;;;;5143480;27;46069;-74
2021/08/10 01:53:46;;;;;;;;;8.00;7.33;;;;;;;;5162231;27;45360;-73
2021/08/10 01:56:11;;;;;;;;;7.33;7.33;;;;;;;;5162443;27;45348;-73
2021/08/10 01:58:37;;;;;;;;;8.00;8.00;;;;;;;;5151406;27;45423;-73
2021/08/10 02:01:03;;;;;;;;;6.67;5.67;;;;;;;;5141411;27;45481;-73
2021/08/10 02:03:30;;;;;;;;;7.33;7.33;;;;;;;;5141396;27;45321;-73
2021/08/10 02:05:55;;;;;;;;;11.67;9.00;;;;;;;;5141314;27;45334;-73
2021/08/10 02:08:22;;;;;;;;;9.00;7.67;;;;;;;;5141368;27;45265;-73
2021/08/10 02:10:47;;;;;;;;;7.00;7.00;;;;;;;;5141311;27;45508;-73
2021/08/10 02:13:13;;;;;;;;;7.00;7.00;;;;;;;;5140906;27;45312;-73
2021/08/10 02:15:44;;;;;;;;;7.00;7.00;;;;;;;;5141195;27;45267;-73
2021/08/10 02:18:09;;;;;;;;;7.67;7.00;;;;;;;;5152733;27;45444;-73
2021/08/10 02:20:36;;;;;;;;;8.00;8.00;;;;;;;;5162008;27;45221;-73
2021/08/10 02:23:02;;;;;;;;;8.33;8.33;;;;;;;;5161838;27;45364;-73
2021/08/10 02:25:28;;;;;;;;;6.00;6.00;;;;;;;;5162078;27;45469;-74
2021/08/10 02:27:57;;;;;;;;;6.33;5.33;;;;;;;;5161888;27;45240;-73
2021/08/10 02:30:25;;;;;;;;;8.00;7.00;;;;;;;;5161842;27;45447;-73
2021/08/10 02:32:51;;;;;;;;;5.33;5.33;;;;;;;;5161782;27;45360;-73
2021/08/10 02:35:21;;;;;;;;;7.00;7.00;;;;;;;;5161984;27;46102;-73
2021/08/10 02:37:47;;;;;;;;;6.00;6.00;;;;;;;;5161784;27;45337;-73
2021/08/10 02:40:14;;;;;;;;;7.00;6.00;;;;;;;;5161784;27;45360;-74
2021/08/10 02:42:41;;;;;;;;;8.33;8.00;;;;;;;;5161621;27;45296;-73
2021/08/10 02:45:06;;;;;;;;;8.33;8.33;;;;;;;;5164852;27;45321;-73
2021/08/10 02:47:32;;;;;;;;;7.00;7.00;;;;;;;;5165410;27;45226;-73
2021/08/10 02:49:57;;;;;;;;;9.00;7.67;;;;;;;;5165416;27;45338;-73
2021/08/10 02:52:23;;;;;;;;;8.50;8.50;;;;;;;;5165204;27;45552;-73
2021/08/10 02:54:48;;;;;;;;;9.33;7.67;;;;;;;;5165313;27;45316;-73
2021/08/10 02:57:31;;;;;;;;;10.67;10.67;;;;;;;;5146551;27;45264;-73
2021/08/10 03:00:05;;;;;;;;;6.00;6.00;;;;;;;;5165261;27;45180;-73
2021/08/10 03:02:33;;;;;;;;;12.67;7.67;;;;;;;;5164931;27;46143;-73
2021/08/10 03:05:02;;;;;;;;;10.67;9.67;;;;;;;;5165080;27;45379;-73
2021/08/10 03:07:29;;;;;;;;;7.00;7.00;;;;;;;;5164983;27;45319;-73
2021/08/10 03:09:57;;;;;;;;;7.67;6.33;;;;;;;;5165022;27;45249;-73
2021/08/10 03:12:25;;;;;;;;;8.33;7.00;;;;;;;;5164562;27;46209;-74
2021/08/10 03:14:51;;;;;;;;;9.00;9.00;;;;;;;;5145804;27;45345;-74
2021/08/10 03:17:16;;;;;;;;;6.67;6.33;;;;;;;;5164857;27;45335;-73
2021/08/10 03:19:43;;;;;;;;;7.00;7.00;;;;;;;;5164753;27;45320;-73
2021/08/10 03:22:09;;;;;;;;;8.67;8.67;;;;;;;;5164615;27;46246;-73
2021/08/10 03:24:34;;;;;;;;;8.00;8.00;;;;;;;;5164748;27;45302;-73
2021/08/10 03:27:01;;;;;;;;;6.33;6.33;;;;;;;;5164814;27;45396;-73
2021/08/10 03:29:27;;;;;;;;;6.00;6.00;;;;;;;;5164451;27;45350;-73
2021/08/10 03:31:53;;;;;;;;;8.00;7.67;;;;;;;;5164523;27;45273;-73
2021/08/10 03:34:19;;;;;;;;;7.00;7.00;;;;;;;;5164550;27;45410;-73
2021/08/10 03:36:45;;;;;;;;;7.67;6.00;;;;;;;;5164708;27;45307;-73
2021/08/10 03:39:11;;;;;;;;;8.00;8.00;;;;;;;;5164197;27;45536;-74
2021/08/10 03:41:37;;;;;;;;;8.00;8.00;;;;;;;;5164418;27;46235;-75
2021/08/10 03:44:02;;;;;;;;;9.33;9.33;;;;;;;;5145293;27;45610;-74
2021/08/10 03:46:29;;;;;;;;;8.67;8.00;;;;;;;;5164529;27;45428;-74
2021/08/10 03:48:55;;;;;;;;;10.33;7.67;;;;;;;;5164450;27;45231;-74
2021/08/10 03:51:20;;;;;;;;;9.33;8.33;;;;;;;;5164112;27;46006;-74
2021/08/10 03:53:47;;;;;;;;;9.00;9.00;;;;;;;;5164368;27;45312;-74
2021/08/10 03:56:12;;;;;;;;;9.67;8.67;;;;;;;;5163911;27;45278;-74
2021/08/10 03:58:39;;;;;;;;;9.00;9.00;;;;;;;;5164131;27;45437;-74
2021/08/10 04:01:05;;;;;;;;;9.33;9.33;;;;;;;;5164151;27;45382;-74
2021/08/10 04:03:31;;;;;;;;;7.00;7.00;;;;;;;;5164151;27;45279;-73
2021/08/10 04:06:00;;;;;;;;;7.00;7.00;;;;;;;;5164210;27;45301;-74
2021/08/10 04:08:26;;;;;;;;;7.33;6.67;;;;;;;;5163795;27;45297;-74
2021/08/10 04:10:52;;;;;;;;;10.00;8.33;;;;;;;;5163907;27;45285;-74
2021/08/10 04:13:19;;;;;;;;;10.00;8.00;;;;;;;;5163823;27;45212;-74
2021/08/10 04:15:45;;;;;;;;;5.00;5.00;;;;;;;;5164013;27;45328;-74
2021/08/10 04:18:12;;;;;;;;;9.67;8.33;;;;;;;;5163568;27;45343;-74
2021/08/10 04:20:38;;;;;;;;;7.67;6.67;;;;;;;;5163745;27;45383;-74
2021/08/10 04:23:04;;;;;;;;;9.67;8.67;;;;;;;;5163709;27;45337;-74
2021/08/10 04:25:29;;;;;;;;;8.00;8.00;;;;;;;;5163915;27;45328;-74
2021/08/10 04:27:54;;;;;;;;;8.67;8.67;;;;;;;;5163288;27;45312;-74
2021/08/10 04:30:20;;;;;;;;;9.67;8.67;;;;;;;;5163442;27;45313;-75
2021/08/10 04:32:45;;;;;;;;;9.00;7.67;;;;;;;;5144085;27;45340;-74
2021/08/10 04:35:10;;;;;;;;;7.67;7.00;;;;;;;;5122119;27;45318;-74
2021/08/10 04:37:36;;;;;;;;;7.67;7.67;;;;;;;;5121625;27;45207;-74
2021/08/10 04:40:01;;;;;;;;;10.33;9.00;;;;;;;;5121404;27;45291;-74
2021/08/10 04:42:27;;;;;;;;;10.00;10.00;;;;;;;;5121626;27;45313;-75
2021/08/10 04:44:52;;;;;;;;;7.00;7.00;;;;;;;;5121782;27;45230;-75
2021/08/10 04:47:17;;;;;;;;;8.00;8.00;;;;;;;;5121644;27;45235;-75
2021/08/10 04:49:42;;;;;;;;;6.33;6.33;;;;;;;;5121518;27;45414;-74
2021/08/10 04:52:08;;;;;;;;;8.00;8.00;;;;;;;;5121530;27;45364;-74
2021/08/10 04:54:34;;;;;;;;;7.00;7.00;;;;;;;;5121773;27;45812;-74
2021/08/10 04:56:59;;;;;;;;;9.00;8.67;;;;;;;;5121429;27;45356;-74
2021/08/10 04:59:24;;;;;;;;;8.00;8.00;;;;;;;;5121344;27;46454;-74
2021/08/10 05:01:50;;;;;;;;;10.67;8.33;;;;;;;;5138969;27;45338;-74
2021/08/10 05:04:15;;;;;;;;;7.00;6.33;;;;;;;;5142492;27;45522;-74
2021/08/10 05:06:41;;;;;;;;;8.00;8.00;;;;;;;;5141437;27;45383;-74
2021/08/10 05:09:06;;;;;;;;;6.67;6.00;;;;;;;;5141556;27;45310;-75
2021/08/10 05:11:32;;;;;;;;;9.67;9.00;;;;;;;;5142057;27;45320;-75
2021/08/10 05:13:57;;;;;;;;;6.33;6.33;;;;;;;;5142062;27;45335;-74
2021/08/10 05:16:23;;;;;;;;;8.33;8.33;;;;;;;;5141847;27;45381;-75
2021/08/10 05:18:49;;;;;;;;;6.00;6.00;;;;;;;;5158888;27;45332;-75
2021/08/10 05:21:16;;;;;;;;;7.33;7.33;;;;;;;;5162759;27;45217;-74
2021/08/10 05:23:41;;;;;;;;;8.00;7.67;;;;;;;;5163093;27;45311;-74
2021/08/10 05:26:06;;;;;;;;;9.67;9.67;;;;;;;;5162770;27;45245;-74
2021/08/10 05:28:32;;;;;;;;;8.00;8.00;;;;;;;;5162490;27;46558;-75
2021/08/10 05:30:57;;;;;;;;;8.00;6.67;;;;;;;;5162695;27;45312;-75
2021/08/10 05:33:23;;;;;;;;;7.00;7.00;;;;;;;;5144109;27;45248;-75
2021/08/10 05:35:48;;;;;;;;;7.00;7.00;;;;;;;;5162770;27;45413;-75
2021/08/10 05:38:13;;;;;;;;;8.67;8.67;;;;;;;;5162356;27;45286;-74
2021/08/10 05:40:39;;;;;;;;;6.67;6.00;;;;;;;;5162691;27;45369;-74
2021/08/10 05:43:04;;;;;;;;;6.00;5.33;;;;;;;;5162573;27;45359;-75
2021/08/10 05:45:29;;;;;;;;;10.00;8.00;;;;;;;;5162547;27;45293;-76
2021/08/10 05:47:54;;;;;;;;;12.00;10.00;;;;;;;;5162400;27;45281;-75
2021/08/10 05:50:20;;;;;;;;;9.33;9.33;;;;;;;;5162315;27;45329;-75
2021/08/10 05:52:45;;;;;;;;;11.33;8.00;;;;;;;;5162430;27;45872;-75
2021/08/10 05:55:11;;;;;;;;;7.00;7.00;;;;;;;;5161687;27;45484;-76
2021/08/10 05:57:36;;;;;;;;;11.00;8.00;;;;;;;;5161305;27;46092;-75
2021/08/10 06:00:02;;;;;;;;;7.00;6.00;;;;;;;;5162319;27;45383;-73
2021/08/10 06:02:27;;;;;;;;;6.33;6.33;;;;;;;;5162428;27;45380;-74
2021/08/10 06:04:53;;;;;;;;;8.67;8.67;;;;;;;;5162182;27;45331;-73
2021/08/10 06:07:18;;;;;;;;;8.33;8.33;;;;;;;;5162075;27;45235;-73
2021/08/10 06:09:43;;;;;;;;;8.33;7.00;;;;;;;;5162304;27;45304;-73
2021/08/10 06:12:10;;;;;;;;;9.33;8.00;;;;;;;;5162231;27;45276;-73
2021/08/10 06:14:35;;;;;;;;;9.00;7.33;;;;;;;;5161993;27;45411;-75
2021/08/10 06:17:00;;;;;;;;;10.33;8.00;;;;;;;;5161508;27;45629;-74
2021/08/10 06:19:26;;;;;;;;;9.33;9.33;;;;;;;;5164146;27;45248;-74
2021/08/10 06:21:52;;;;;;;;;9.67;8.67;;;;;;;;5165338;27;45326;-75
2021/08/10 06:24:17;;;;;;;;;9.33;9.33;;;;;;;;5165766;27;45482;-76
2021/08/10 06:26:43;;;;;;;;;10.33;10.33;;;;;;;;5165372;27;46110;-75
2021/08/10 06:29:08;;;;;;;;;7.67;7.33;;;;;;;;5165432;27;45381;-76
2021/08/10 06:31:33;;;;;;;;;6.33;6.33;;;;;;;;5164166;27;45466;-76
2021/08/10 06:33:59;;;;;;;;;8.00;7.00;;;;;;;;5163588;27;45466;-77
2021/08/10 06:36:24;;;;;;;;;6.00;6.00;;;;;;;;5163260;27;45264;-79
2021/08/10 06:38:49;;;;;;;;;7.67;7.67;;;;;;;;5163994;27;45370;-78
2021/08/10 06:41:15;;;;;;;;;6.67;6.67;;;;;;;;5163986;27;45235;-77
2021/08/10 06:43:40;;;;;;;;;7.67;7.00;;;;;;;;5163711;27;45332;-78
2021/08/10 06:46:05;;;;;;;;;7.33;7.33;;;;;;;;5163614;27;45315;-77
2021/08/10 06:48:31;;;;;;;;;8.67;8.67;;;;;;;;5162807;27;45673;-78
2021/08/10 06:50:56;;;;;;;;;11.00;9.67;;;;;;;;5163659;27;45453;-76
2021/08/10 06:53:21;;;;;;;;;8.33;8.33;;;;;;;;5163403;27;45373;-76
2021/08/10 06:55:47;;;;;;;;;8.67;7.67;;;;;;;;5161957;27;45575;-76
2021/08/10 06:58:12;;;;;;;;;9.00;9.00;;;;;;;;5161718;27;46424;-77
2021/08/10 07:00:39;;;;;;;;;8.33;8.33;;;;;;;;5161477;27;45487;-78
2021/08/10 07:03:05;;;;;;;;;10.33;10.00;;;;;;;;5164019;27;45410;-78
2021/08/10 07:05:30;;;;;;;;;9.00;8.00;;;;;;;;5164244;27;45322;-78
2021/08/10 07:07:55;;;;;;;;;10.67;10.00;;;;;;;;5163831;27;45457;-80
2021/08/10 07:10:21;;;;;;;;;7.00;7.00;;;;;;;;5164563;27;45307;-78
2021/08/10 07:12:46;;;;;;;;;8.67;7.33;;;;;;;;5164529;27;45295;-76
2021/08/10 07:15:11;;;;;;;;;9.00;9.00;;;;;;;;5164837;27;45984;-79
2021/08/10 07:17:37;;;;;;;;;7.00;7.00;;;;;;;;5164651;27;45341;-79
2021/08/10 07:20:02;;;;;;;;;10.33;9.00;;;;;;;;5165084;27;45289;-78
2021/08/10 07:22:27;;;;;;;;;8.00;8.00;;;;;;;;5165284;27;45295;-79
2021/08/10 07:24:53;;;;;;;;;10.00;10.00;;;;;;;;5165193;27;45329;-79
2021/08/10 07:27:18;;;;;;;;;9.33;8.00;;;;;;;;5164788;27;45776;-79
2021/08/10 07:29:43;;;;;;;;;10.00;9.00;;;;;;;;5169108;27;45404;-79
2021/08/10 07:32:09;;;;;;;;;8.00;8.00;;;;;;;;5146987;27;45379;-79
2021/08/10 07:34:34;;;;;;;;;7.00;7.00;;;;;;;;5174024;27;45939;-78
2021/08/10 07:37:00;;;;;;;;;9.00;7.67;;;;;;;;5166788;27;45312;-80
2021/08/10 07:39:25;;;;;;;;;9.00;8.00;;;;;;;;5166331;27;45355;-80
2021/08/10 07:41:50;;;;;;;;;10.00;10.00;;;;;;;;5166595;27;45432;-80
2021/08/10 07:44:16;;;;;;;;;8.00;7.33;;;;;;;;5165357;27;45298;-81
2021/08/10 07:46:41;;;;;;;;;8.00;8.00;;;;;;;;5164706;27;45419;-79
2021/08/10 07:49:07;;;;;;;;;9.67;8.33;;;;;;;;5166695;27;45299;-77
2021/08/10 07:51:32;;;;;;;;;9.00;7.67;;;;;;;;5165247;27;45375;-77
2021/08/10 07:53:57;;;;;;;;;10.67;10.67;;;;;;;;5167712;27;45346;-78
2021/08/10 07:56:23;;;;;;;;;6.67;5.67;;;;;;;;5168227;27;45303;-78
2021/08/10 07:58:48;;;;;;;;;7.00;6.00;;;;;;;;5177362;27;45530;-78
2021/08/10 08:01:13;;;;;;;;;6.67;5.33;;;;;;;;5157047;27;45644;-78
2021/08/10 08:03:38;;;;;;;;;6.00;6.00;;;;;;;;5168334;27;45205;-81
2021/08/10 08:06:04;;;;;;;;;10.00;8.33;;;;;;;;5165845;27;45378;-78
2021/08/10 08:08:30;;;;;;;;;9.67;7.00;;;;;;;;5149257;27;45259;-80
2021/08/10 08:10:56;;;;;;;;;6.67;6.00;;;;;;;;5169369;27;45266;-79
2021/08/10 08:13:22;;;;;;;;;7.00;7.00;;;;;;;;5164554;27;45466;-80
2021/08/10 08:15:47;;;;;;;;;8.00;7.00;;;;;;;;5163838;27;45286;-80
2021/08/10 08:18:13;;;;;;;;;4.33;4.33;;;;;;;;5163737;27;45273;-81
2021/08/10 08:20:38;;;;;;;;;9.67;8.67;;;;;;;;5164014;27;45606;-82
2021/08/10 08:23:04;;;;;;;;;8.00;7.00;;;;;;;;5163622;27;46053;-82
2021/08/10 08:25:29;;;;;;;;;5.00;5.00;;;;;;;;5163861;27;45455;-80
2021/08/10 08:27:54;;;;;;;;;8.67;6.00;;;;;;;;5164071;27;45584;-79
2021/08/10 08:30:20;;;;;;;;;5.33;5.33;;;;;;;;5144334;27;45676;-81
2021/08/10 08:32:45;;;;;;;;;5.67;5.67;;;;;;;;5159605;27;45650;-81
2021/08/10 08:35:11;;;;;;;;;6.33;5.33;;;;;;;;5163332;27;45497;-81
2021/08/10 08:37:36;;;;;;;;;8.00;6.33;;;;;;;;5155546;27;45315;-80
2021/08/10 08:40:02;;;;;;;;;6.00;6.00;;;;;;;;5153032;27;45389;-80
2021/08/10 08:42:27;;;;;;;;;6.00;6.00;;;;;;;;5150037;27;46069;-79
2021/08/10 08:44:53;;;;;;;;;7.67;7.67;;;;;;;;5148200;27;45430;-81
2021/08/10 08:47:21;;;;;;;;;6.67;6.67;;;;;;;;5153249;27;45981;-80
2021/08/10 08:49:47;;;;;;;;;7.00;7.00;;;;;;;;5150643;27;45551;-81
2021/08/10 08:52:15;;;;;;;;;7.33;5.33;;;;;;;;5152057;27;45252;-81
2021/08/10 08:54:40;;;;;;;;;10.00;8.67;;;;;;;;5151043;27;45444;-82
2021/08/10 08:57:06;;;;;;;;;7.33;6.67;;;;;;;;5150505;27;45499;-82
2021/08/10 08:59:31;;;;;;;;;9.00;9.00;;;;;;;;5151619;27;45446;-81
2021/08/10 09:01:56;;;;;;;;;8.67;8.33;;;;;;;;5134124;27;48056;-81
2021/08/10 09:04:22;;;;;;;;;7.00;7.00;;;;;;;;5153872;27;45497;-80
2021/08/10 09:06:47;;;;;;;;;9.33;8.67;;;;;;;;5162549;27;45682;-81
2021/08/10 09:09:19;;;;;;;;;7.00;6.00;;;;;;;;5145302;27;45503;-82
2021/08/10 09:11:52;;;;;;;;;7.33;6.67;;;;;;;;5153512;27;46142;-82
2021/08/10 09:14:18;;;;;;;;;7.67;6.67;;;;;;;;5147849;27;45448;-82
2021/08/10 09:17:02;;;;;;;;;8.00;8.00;;;;;;;;5157338;27;45540;-80
2021/08/10 09:19:47;;;;;;;;;6.33;6.33;;;;;;;;5160905;27;45459;-80
2021/08/10 09:22:12;;;;;;;;;7.00;7.00;;;;;;;;5144185;27;45403;-79
2021/08/10 09:24:43;;;;;;;;;6.00;5.67;;;;;;;;5143983;27;45334;-81
2021/08/10 09:27:21;;;;;;;;;8.00;8.00;;;;;;;;5144631;27;45440;-80
2021/08/10 09:29:47;;;;;;;;;5.00;5.00;;;;;;;;5156527;27;45294;-81
2021/08/10 09:32:12;;;;;;;;;9.00;6.67;;;;;;;;5153253;27;45328;-82
2021/08/10 09:34:37;;;;;;;;;5.67;5.67;;;;;;;;5161908;27;45447;-80
2021/08/10 09:37:03;;;;;;;;;7.67;6.00;;;;;;;;5161926;27;45469;-82
2021/08/10 09:39:29;;;;;;;;;5.00;5.00;;;;;;;;5153370;27;45348;-81
2021/08/10 09:42:10;;;;;;;;;8.33;8.33;;;;;;;;5152626;27;45777;-81
2021/08/10 09:44:36;;;;;;;;;7.67;7.67;;;;;;;;5137517;27;45297;-81
2021/08/10 09:47:02;;;;;;;;;5.33;5.33;;;;;;;;5163310;27;45495;-80
2021/08/10 09:49:41;;;;;;;;;6.67;6.67;;;;;;;;5154370;27;45340;-80
2021/08/10 09:52:06;;;;;;;;;6.00;6.00;;;;;;;;5162173;27;45442;-81
2021/08/10 09:54:32;;;;;;;;;8.00;6.00;;;;;;;;5164944;27;45324;-81
2021/08/10 09:57:00;;;;;;;;;6.67;6.67;;;;;;;;5165028;27;45340;-78
2021/08/10 09:59:41;;;;;;;;;7.00;6.67;;;;;;;;5144689;27;46083;-80
2021/08/10 10:02:20;;;;;;;;;6.33;6.33;;;;;;;;5163562;27;46212;-80
2021/08/10 10:04:53;;;;;;;;;7.33;7.33;;;;;;;;5163446;27;45211;-82
2021/08/10 10:07:18;;;;;;;;;5.00;3.33;;;;;;;;5163675;27;45493;-81
2021/08/10 10:09:44;;;;;;;;;4.00;4.00;;;;;;;;5161760;27;45316;-81
2021/08/10 10:12:10;;;;;;;;;8.00;6.00;;;;;;;;5166068;27;45324;-82
2021/08/10 10:14:36;;;;;;;;;6.67;5.67;;;;;;;;5165485;27;45299;-81
2021/08/10 10:17:02;;;;;;;;;7.00;5.00;;;;;;;;5164978;27;45280;-79
2021/08/10 10:19:29;;;;;;;;;6.67;6.67;;;;;;;;5165069;27;45352;-78
2021/08/10 10:21:55;;;;;;;;;4.00;4.00;;;;;;;;5165468;27;45362;-78
2021/08/10 10:24:21;;;;;;;;;7.00;7.00;;;;;;;;5165651;27;45372;-78
2021/08/10 10:27:07;;;;;;;;;5.33;5.33;;;;;;;;5164809;27;45352;-79
2021/08/10 10:29:33;;;;;;;;;7.00;6.33;;;;;;;;5164589;27;45499;-79
2021/08/10 10:31:58;;;;;;;;;7.33;7.33;;;;;;;;5165057;27;45443;-78
2021/08/10 10:34:24;;;;;;;;;6.33;6.00;;;;;;;;5164990;27;45244;-77
2021/08/10 10:36:50;;;;;;;;;5.00;4.00;;;;;;;;5165358;27;45205;-78
2021/08/10 10:39:26;;;;;;;;;7.67;7.67;;;;;;;;5165700;27;45292;-77
2021/08/10 10:41:53;;;;;;;;;5.33;5.33;;;;;;;;5165643;27;46101;-78
2021/08/10 10:44:34;;;;;;;;;6.33;5.00;;;;;;;;5165397;27;45341;-77
2021/08/10 10:47:20;;;;;;;;;4.00;4.00;;;;;;;;5163681;27;45422;-79
2021/08/10 10:49:45;;;;;;;;;4.00;3.67;;;;;;;;5163441;27;45360;-79
2021/08/10 10:52:11;;;;;;;;;4.00;4.00;;;;;;;;5163153;27;45320;-79
2021/08/10 10:54:43;;;;;;;;;5.00;4.67;;;;;;;;5164218;27;45304;-79
2021/08/10 10:57:28;;;;;;;;;6.00;6.00;;;;;;;;5159280;27;45271;-80
2021/08/10 10:59:54;;;;;;;;;4.00;3.00;;;;;;;;5164448;27;45376;-80
2021/08/10 11:02:22;;;;;;;;;5.00;4.00;;;;;;;;5163976;27;45172;-80
2021/08/10 11:05:06;;;;;;;;;3.33;3.00;;;;;;;;5164088;27;45275;-81
2021/08/10 11:07:40;;;;;;;;;4.33;3.33;;;;;;;;5164922;27;45429;-80
2021/08/10 11:10:07;;;;;;;;;3.00;3.00;;;;;;;;5164367;27;45483;-80
2021/08/10 11:12:44;;;;;;;;;4.00;4.00;;;;;;;;5164624;27;45238;-79
2021/08/10 11:15:23;;;;;;;;;5.00;5.00;;;;;;;;5156685;27;45296;-80
2021/08/10 11:18:07;;;;;;;;;3.00;3.00;;;;;;;;5154192;27;45646;-82
2021/08/10 11:20:32;;;;;;;;;5.00;5.00;;;;;;;;5155754;27;45482;-82
2021/08/10 11:23:17;;;;;;;;;5.00;5.00;;;;;;;;5152745;27;45475;-82
2021/08/10 11:25:42;;;;;;;;;4.67;4.67;;;;;;;;5152444;27;45414;-83
2021/08/10 11:28:26;;;;;;;;;6.00;5.33;;;;;;;;5151831;27;45562;-81
2021/08/10 11:30:51;;;;;;;;;4.33;4.33;;;;;;;;5154216;27;46405;-82
2021/08/10 11:33:36;;;;;;;;;4.33;4.33;;;;;;;;5154000;27;45913;-83
2021/08/10 11:36:14;;;;;;;;;4.00;3.00;;;;;;;;5151393;27;45530;-82
2021/08/10 11:38:51;;;;;;;;;4.00;4.00;;;;;;;;5155300;27;45337;-81
2021/08/10 11:41:20;;;;;;;;;3.00;3.00;;;;;;;;5158953;27;46659;-82
2021/08/10 11:43:47;;;;;;;;;7.00;7.00;;;;;;;;5152714;27;45355;-83
2021/08/10 11:46:18;;;;;;;;;6.33;6.00;;;;;;;;5153120;27;45671;-81
2021/08/10 11:48:47;;;;;;;;;4.00;4.00;;;;;;;;5143989;27;45857;-81
2021/08/10 11:51:23;;;;;;;;;4.00;4.00;;;;;;;;5151246;27;45503;-82
2021/08/10 11:53:50;;;;;;;;;5.00;4.00;;;;;;;;5144717;27;45287;-80
2021/08/10 11:56:21;;;;;;;;;3.33;3.33;;;;;;;;5164356;27;45207;-83
2021/08/10 11:58:46;;;;;;;;;4.67;4.67;;;;;;;;5164117;27;45384;-83
2021/08/10 12:01:11;;;;;;;;;3.00;3.00;;;;;;;;5163760;27;45386;-83
2021/08/10 12:03:38;;;;;;;;;3.00;3.00;;;;;;;;5156768;27;46023;-84
2021/08/10 12:06:03;;;;;;;;;6.33;6.00;;;;;;;;5154249;27;45314;-81
2021/08/10 12:08:29;;;;;;;;;5.00;5.00;;;;;;;;5162511;27;45224;-80
2021/08/10 12:10:54;;;;;;;;;7.33;5.33;;;;;;;;5163708;27;45521;-82
2021/08/10 12:13:20;;;;;;;;;5.33;5.00;;;;;;;;5144595;27;48001;-81
2021/08/10 12:15:46;;;;;;;;;3.67;3.33;;;;;;;;5164057;27;45297;-81
2021/08/10 12:18:13;;;;;;;;;4.67;4.67;;;;;;;;5163010;27;45422;-80
2021/08/10 12:20:39;;;;;;;;;4.00;4.00;;;;;;;;5164202;27;45480;-81
2021/08/10 12:23:05;;;;;;;;;7.00;6.33;;;;;;;;5163285;27;45381;-81
2021/08/10 12:25:31;;;;;;;;;4.00;4.00;;;;;;;;5159012;27;45391;-80
2021/08/10 12:28:04;;;;;;;;;5.67;4.67;;;;;;;;5142714;27;45387;-81
2021/08/10 12:30:32;;;;;;;;;4.00;4.00;;;;;;;;5151812;27;45464;-81
2021/08/10 12:33:23;;;;;;;;;3.67;3.33;;;;;;;;5162978;27;45502;-81
2021/08/10 12:36:14;;;;;;;;;5.00;4.00;;;;;;;;5149452;27;45350;-81
2021/08/10 12:38:40;;;;;;;;;3.00;3.00;;;;;;;;5138644;27;45302;-79
2021/08/10 12:41:05;;;;;;;;;3.00;3.00;;;;;;;;5143327;27;45248;-80
2021/08/10 12:43:31;;;;;;;;;4.67;3.33;;;;;;;;5141263;27;46100;-79
2021/08/10 12:45:56;;;;;;;;;5.33;4.00;;;;;;;;5122147;27;45246;-81
2021/08/10 12:48:22;;;;;;;;;3.33;3.33;;;;;;;;5127670;27;45263;-80
2021/08/10 12:50:55;;;;;;;;;3.00;3.00;;;;;;;;5124781;27;45487;-80
2021/08/10 12:53:27;;;;;;;;;2.33;2.33;;;;;;;;5141028;27;45344;-81
2021/08/10 12:55:53;;;;;;;;;4.00;4.00;;;;;;;;5124353;27;45621;-81
2021/08/10 12:58:18;;;;;;;;;5.67;4.33;;;;;;;;5133716;27;45269;-81
2021/08/10 13:00:55;;;;;;;;;3.33;2.33;;;;;;;;5141578;27;45491;-81
2021/08/10 13:03:21;;;;;;;;;1.33;1.33;;;;;;;;5142689;27;45455;-80
2021/08/10 13:05:46;;;;;;;;;3.00;3.00;;;;;;;;5142102;27;45329;-79
2021/08/10 13:08:12;;;;;;;;;3.00;3.00;;;;;;;;5144448;27;45266;-80
2021/08/10 13:10:41;;;;;;;;;3.00;2.33;;;;;;;;5142916;27;45361;-81
2021/08/10 13:13:07;;;;;;;;;3.00;3.00;;;;;;;;5132881;27;46252;-79
2021/08/10 13:15:43;;;;;;;;;2.67;2.67;;;;;;;;5126229;27;45248;-80
2021/08/10 13:18:25;;;;;;;;;2.33;2.33;;;;;;;;5149809;27;45357;-80
2021/08/10 13:21:02;;;;;;;;;3.33;3.33;;;;;;;;5161986;27;45458;-80
2021/08/10 13:23:29;;;;;;;;;3.67;3.00;;;;;;;;5155865;27;46054;-79
2021/08/10 13:26:02;;;;;;;;;3.00;2.00;;;;;;;;5145193;27;47476;-78
2021/08/10 13:28:29;;;;;;;;;3.00;3.00;;;;;;;;5144144;27;45612;-78
2021/08/10 13:31:10;;;;;;;;;2.67;2.67;;;;;;;;5149656;27;45498;-79
2021/08/10 13:33:51;;;;;;;;;3.33;3.33;;;;;;;;5149802;27;46044;-78
2021/08/10 13:36:17;;;;;;;;;3.00;3.00;;;;;;;;5152172;27;45574;-78
2021/08/10 13:38:42;;;;;;;;;2.00;2.00;;;;;;;;5143530;27;45427;-81
2021/08/10 13:41:07;;;;;;;;;2.33;2.33;;;;;;;;5143531;27;45309;-81
2021/08/10 13:43:32;;;;;;;;;3.00;3.00;;;;;;;;5151100;27;45317;-80
2021/08/10 13:45:58;;;;;;;;;3.00;2.00;;;;;;;;5142831;27;45553;-79
2021/08/10 13:48:23;;;;;;;;;2.00;1.67;;;;;;;;5143830;27;45331;-79
2021/08/10 13:50:48;;;;;;;;;3.00;3.00;;;;;;;;5145387;27;45382;-82
2021/08/10 13:53:14;;;;;;;;;3.67;3.00;;;;;;;;5139077;27;46437;-80
2021/08/10 13:55:39;;;;;;;;;3.67;2.33;;;;;;;;5150737;27;45551;-81
2021/08/10 13:58:05;;;;;;;;;1.67;1.67;;;;;;;;5148940;27;45498;-81
2021/08/10 14:00:30;;;;;;;;;1.67;1.67;;;;;;;;5153556;27;45293;-81
2021/08/10 14:02:56;;;;;;;;;2.00;2.00;;;;;;;;5148924;27;46168;-79
2021/08/10 14:05:21;;;;;;;;;3.00;3.00;;;;;;;;5149209;27;45301;-79
2021/08/10 14:07:47;;;;;;;;;3.00;2.00;;;;;;;;5145556;27;45810;-77
2021/08/10 14:10:12;;;;;;;;;5.00;2.67;;;;;;;;5142982;27;45474;-77
2021/08/10 14:12:38;;;;;;;;;1.00;1.00;;;;;;;;5150353;27;46091;-80
2021/08/10 14:15:04;;;;;;;;;5.67;4.67;;;;;;;;5152441;27;45939;-80
2021/08/10 14:17:30;;;;;;;;;1.00;1.00;;;;;;;;5154507;27;45376;-78
2021/08/10 14:19:55;;;;;;;;;3.00;3.00;;;;;;;;5148325;27;45636;-80
2021/08/10 14:22:20;;;;;;;;;2.00;2.00;;;;;;;;5144696;27;45344;-79
2021/08/10 14:24:46;;;;;;;;;3.67;2.00;;;;;;;;5144945;27;45451;-80
2021/08/10 14:27:13;;;;;;;;;2.00;2.00;;;;;;;;5140150;27;45926;-78
2021/08/10 14:29:38;;;;;;;;;2.00;2.00;;;;;;;;5139468;27;45755;-78
2021/08/10 14:32:04;;;;;;;;;3.00;2.00;;;;;;;;5138661;27;46366;-76
2021/08/10 14:34:29;;;;;;;;;2.00;2.00;;;;;;;;5139505;27;45451;-78
2021/08/10 14:36:54;;;;;;;;;2.00;2.00;;;;;;;;5141309;27;45493;-77
2021/08/10 14:39:20;;;;;;;;;2.00;2.00;;;;;;;;5142758;27;45517;-77
2021/08/10 14:41:45;;;;;;;;;1.00;1.00;;;;;;;;5149520;27;45411;-78
2021/08/10 14:44:11;;;;;;;;;2.00;2.00;;;;;;;;5145771;27;45329;-78